createdAt,value
2023-03-11T00:00:22.790Z,6.03
2023-03-11T00:02:51.938Z,5.40
2023-03-11T00:05:21.230Z,5.77
2023-03-11T00:07:49.281Z,4.63
2023-03-11T00:10:17.882Z,5.23
2023-03-11T00:12:44.566Z,5.20
2023-03-11T00:15:12.162Z,4.63
2023-03-11T00:17:39.149Z,4.60
2023-03-11T00:20:08.019Z,3.60
2023-03-11T00:22:35.148Z,6.00
2023-03-11T00:25:03.476Z,4.83
2023-03-11T00:27:30.260Z,6.20
2023-03-11T00:29:56.950Z,6.63
2023-03-11T00:32:24.066Z,6.40
2023-03-11T00:34:51.086Z,7.00
2023-03-11T00:37:18.040Z,7.07
2023-03-11T00:39:45.297Z,6.87
2023-03-11T00:42:13.777Z,5.70
2023-03-11T00:44:43.535Z,8.10
2023-03-11T00:47:11.740Z,7.00
2023-03-11T00:49:39.377Z,7.17
2023-03-11T00:52:06.442Z,7.30
2023-03-11T00:54:33.325Z,6.77
2023-03-11T00:57:00.225Z,6.43
2023-03-11T00:59:29.101Z,8.27
2023-03-11T01:01:55.956Z,6.00
2023-03-11T01:04:22.805Z,5.67
2023-03-11T01:06:49.671Z,7.27
2023-03-11T01:09:16.557Z,7.80
2023-03-11T01:11:43.449Z,7.70
2023-03-11T01:14:10.303Z,7.80
2023-03-11T01:16:38.747Z,7.07
2023-03-11T01:19:12.797Z,9.57
2023-03-11T01:21:40.784Z,9.47
2023-03-11T01:24:10.368Z,8.10
2023-03-11T01:26:37.311Z,8.70
2023-03-11T01:29:06.599Z,8.30
2023-03-11T01:31:38.045Z,6.90
2023-03-11T01:34:11.288Z,6.90
2023-03-11T01:36:38.381Z,6.10
2023-03-11T01:39:07.829Z,6.60
2023-03-11T01:41:37.239Z,5.10
2023-03-11T01:44:07.412Z,3.90
2023-03-11T01:46:57.302Z,4.43
2023-03-11T01:49:31.146Z,6.07
2023-03-11T01:52:06.381Z,5.23
2023-03-11T01:54:37.492Z,4.73
2023-03-11T01:57:14.014Z,4.77
2023-03-11T01:59:50.840Z,5.50
2023-03-11T02:02:23.171Z,5.70
2023-03-11T02:04:53.554Z,6.30
2023-03-11T02:07:24.947Z,5.10
2023-03-11T02:10:02.626Z,9.53
2023-03-11T02:12:37.908Z,7.60
2023-03-11T02:17:57.145Z,7.10
2023-03-11T02:20:38.041Z,8.83
2023-03-11T02:23:15.091Z,10.80
2023-03-11T02:25:57.444Z,8.60
2023-03-11T02:28:32.366Z,7.07
2023-03-11T02:31:02.927Z,8.53
2023-03-11T02:33:35.034Z,10.43
2023-03-11T02:36:04.685Z,8.60
2023-03-11T02:38:40.304Z,7.17
2023-03-11T02:41:11.339Z,7.47
2023-03-11T02:43:46.711Z,7.67
2023-03-11T02:46:18.154Z,7.90
2023-03-11T02:48:53.267Z,5.70
2023-03-11T02:51:21.061Z,5.97
2023-03-11T02:53:52.324Z,5.30
2023-03-11T02:56:23.167Z,5.10
2023-03-11T02:58:56.405Z,5.70
2023-03-11T03:01:23.984Z,4.63
2023-03-11T03:03:51.217Z,5.70
2023-03-11T03:06:23.690Z,4.77
2023-03-11T03:08:50.979Z,4.20
2023-03-11T03:11:17.945Z,5.43
2023-03-11T03:13:45.104Z,6.30
2023-03-11T03:16:22.628Z,4.77
2023-03-11T03:18:51.451Z,5.63
2023-03-11T03:21:20.770Z,7.40
2023-03-11T03:23:47.895Z,6.67
2023-03-11T03:26:15.227Z,6.20
2023-03-11T03:28:44.523Z,7.70
2023-03-11T03:31:12.345Z,6.60
2023-03-11T03:33:41.022Z,6.10
2023-03-11T03:36:10.250Z,8.03
2023-03-11T03:38:40.016Z,8.90
2023-03-11T03:41:07.895Z,7.43
2023-03-11T03:43:35.118Z,8.20
2023-03-11T03:46:04.303Z,8.30
2023-03-11T03:48:34.064Z,8.07
2023-03-11T03:51:05.444Z,9.43
2023-03-11T03:53:34.663Z,8.40
2023-03-11T03:56:04.008Z,7.03
2023-03-11T03:58:30.896Z,8.43
2023-03-11T04:01:00.288Z,11.80
2023-03-11T04:03:28.953Z,10.00
2023-03-11T04:06:08.070Z,10.20
2023-03-11T04:08:35.067Z,10.60
2023-03-11T04:11:02.294Z,9.50
2023-03-11T04:13:29.078Z,12.30
2023-03-11T04:15:56.053Z,11.60
2023-03-11T04:18:23.219Z,11.80
2023-03-11T04:20:50.606Z,10.73
2023-03-11T04:23:21.720Z,12.53
2023-03-11T04:25:48.803Z,12.97
2023-03-11T04:28:15.951Z,9.83
2023-03-11T04:30:42.792Z,10.43
2023-03-11T04:33:09.634Z,11.03
2023-03-11T04:35:38.045Z,9.50
2023-03-11T04:38:04.958Z,9.77
2023-03-11T04:40:33.339Z,12.60
2023-03-11T04:43:00.431Z,12.50
2023-03-11T04:45:29.985Z,13.80
2023-03-11T04:47:56.751Z,12.13
2023-03-11T04:50:26.950Z,11.20
2023-03-11T04:52:54.057Z,10.93
2023-03-11T04:55:20.815Z,13.07
2023-03-11T04:57:49.154Z,10.73
2023-03-11T05:00:17.019Z,13.27
2023-03-11T05:02:43.898Z,12.90
2023-03-11T05:05:10.686Z,10.23
2023-03-11T05:07:37.762Z,13.40
2023-03-11T05:10:05.606Z,8.93
2023-03-11T05:12:32.482Z,11.37
2023-03-11T05:15:00.751Z,10.73
2023-03-11T05:17:27.506Z,10.43
2023-03-11T05:19:54.451Z,11.30
2023-03-11T05:22:22.045Z,10.13
2023-03-11T05:24:49.555Z,13.53
2023-03-11T05:27:17.300Z,11.27
2023-03-11T05:29:44.371Z,10.43
2023-03-11T05:32:13.156Z,10.57
2023-03-11T05:34:40.596Z,10.67
2023-03-11T05:37:07.738Z,9.33
2023-03-11T05:39:34.764Z,10.00
2023-03-11T05:42:01.495Z,10.00
2023-03-11T05:44:28.293Z,9.17
2023-03-11T05:46:55.082Z,10.27
2023-03-11T05:49:23.329Z,9.50
2023-03-11T05:51:50.409Z,14.10
2023-03-11T05:54:17.666Z,11.60
2023-03-11T05:56:45.506Z,10.80
2023-03-11T05:59:15.863Z,11.27
2023-03-11T06:01:44.024Z,10.80
2023-03-11T06:04:11.445Z,12.60
2023-03-11T06:06:40.905Z,13.53
2023-03-11T06:09:11.064Z,13.23
2023-03-11T06:11:37.871Z,15.00
2023-03-11T06:14:04.593Z,12.83
2023-03-11T06:16:31.348Z,10.60
2023-03-11T06:18:58.130Z,12.40
2023-03-11T06:21:24.995Z,10.17
2023-03-11T06:23:53.336Z,10.77
2023-03-11T06:26:21.529Z,11.17
2023-03-11T06:28:48.991Z,10.17
2023-03-11T06:31:17.774Z,11.00
2023-03-11T06:33:44.525Z,11.00
2023-03-11T06:36:13.524Z,11.27
2023-03-11T06:38:40.313Z,9.57
2023-03-11T06:41:08.834Z,11.50
2023-03-11T06:43:36.374Z,11.23
2023-03-11T06:46:09.156Z,9.97
2023-03-11T06:48:35.922Z,11.10
2023-03-11T06:51:02.658Z,11.63
2023-03-11T06:53:30.379Z,8.77
2023-03-11T06:56:01.474Z,11.27
2023-03-11T06:58:30.564Z,10.97
2023-03-11T07:01:00.790Z,10.90
2023-03-11T07:03:27.653Z,13.77
2023-03-11T07:05:54.439Z,12.93
2023-03-11T07:08:21.202Z,9.90
2023-03-11T07:10:58.973Z,12.23
2023-03-11T07:13:25.723Z,11.60
2023-03-11T07:16:01.554Z,12.63
2023-03-11T07:18:28.418Z,10.90
2023-03-11T07:20:55.073Z,10.37
2023-03-11T07:23:21.806Z,10.40
2023-03-11T07:25:48.553Z,9.70
2023-03-11T07:28:15.344Z,11.77
2023-03-11T07:30:45.091Z,12.23
2023-03-11T07:33:13.288Z,10.83
2023-03-11T07:35:40.376Z,10.30
2023-03-11T07:38:07.178Z,8.97
2023-03-11T07:40:33.904Z,10.30
2023-03-11T07:43:00.601Z,10.73
2023-03-11T07:45:27.389Z,10.70
2023-03-11T07:47:54.076Z,10.50
2023-03-11T07:50:22.155Z,11.00
2023-03-11T07:52:49.052Z,10.43
2023-03-11T07:55:15.944Z,10.13
2023-03-11T07:57:42.679Z,9.13
2023-03-11T08:00:10.675Z,9.57
2023-03-11T08:02:37.385Z,10.17
2023-03-11T08:05:04.504Z,9.50
2023-03-11T08:07:33.246Z,10.10
2023-03-11T08:10:00.241Z,9.33
2023-03-11T08:12:26.936Z,11.00
2023-03-11T08:14:53.720Z,10.67
2023-03-11T08:17:20.454Z,16.70
2023-03-11T08:19:49.226Z,9.57
2023-03-11T08:22:16.060Z,15.20
2023-03-11T08:24:44.109Z,8.83
2023-03-11T08:27:10.769Z,8.20
2023-03-11T08:29:37.447Z,8.30
2023-03-11T08:32:04.628Z,11.43
2023-03-11T08:34:31.328Z,9.63
2023-03-11T08:36:58.063Z,13.00
2023-03-11T08:39:24.676Z,9.80
2023-03-11T08:41:52.706Z,8.90
2023-03-11T08:44:19.380Z,7.30
2023-03-11T08:46:46.381Z,9.13
2023-03-11T08:49:13.081Z,8.57
2023-03-11T08:51:39.776Z,9.70
2023-03-11T08:54:06.923Z,8.00
2023-03-11T08:56:33.695Z,8.13
2023-03-11T08:59:01.665Z,8.40
2023-03-11T09:01:28.339Z,8.30
2023-03-11T09:03:55.565Z,7.87
2023-03-11T09:06:22.551Z,9.40
2023-03-11T09:08:49.693Z,14.37
2023-03-11T09:11:17.400Z,9.33
2023-03-11T09:13:44.550Z,6.90
2023-03-11T09:16:15.803Z,7.57
2023-03-11T09:18:42.808Z,7.90
2023-03-11T09:21:09.749Z,7.17
2023-03-11T09:23:36.484Z,7.87
2023-03-11T09:26:03.305Z,5.80
2023-03-11T09:28:30.124Z,7.77
2023-03-11T09:30:56.932Z,7.30
2023-03-11T09:33:27.784Z,7.13
2023-03-11T09:35:54.601Z,7.60
2023-03-11T09:38:21.357Z,9.20
2023-03-11T09:41:04.505Z,8.27
2023-03-11T09:43:58.637Z,6.90
2023-03-11T09:46:44.278Z,9.67
2023-03-11T09:49:22.915Z,8.70
2023-03-11T09:51:57.598Z,7.10
2023-03-11T09:54:24.335Z,7.40
2023-03-11T09:56:51.421Z,6.10
2023-03-11T09:59:23.243Z,6.67
2023-03-11T10:01:51.101Z,6.47
2023-03-11T10:04:24.798Z,6.80
2023-03-11T10:06:51.589Z,4.90
2023-03-11T10:09:36.550Z,6.83
2023-03-11T10:12:17.624Z,7.00
2023-03-11T10:15:02.147Z,4.87
2023-03-11T10:17:43.854Z,6.50
2023-03-11T10:20:19.263Z,5.70
2023-03-11T10:22:55.416Z,6.27
2023-03-11T10:25:25.244Z,5.10
2023-03-11T10:27:56.979Z,6.03
2023-03-11T10:30:29.619Z,5.50
2023-03-11T10:33:00.834Z,6.50
2023-03-11T10:35:36.508Z,5.50
2023-03-11T10:38:11.756Z,4.13
2023-03-11T10:40:41.214Z,4.43
2023-03-11T10:43:14.190Z,4.90
2023-03-11T10:45:43.123Z,5.80
2023-03-11T10:48:11.043Z,6.30
2023-03-11T10:50:46.516Z,6.47
2023-03-11T10:53:16.807Z,5.37
2023-03-11T10:55:47.209Z,6.60
2023-03-11T10:58:16.078Z,4.97
2023-03-11T11:00:42.912Z,6.70
2023-03-11T11:03:20.032Z,5.03
2023-03-11T11:05:57.502Z,4.97
2023-03-11T11:08:24.223Z,6.10
2023-03-11T11:10:52.635Z,5.87
2023-03-11T11:13:22.120Z,7.07
2023-03-11T11:15:55.582Z,4.70
2023-03-11T11:18:25.177Z,5.50
2023-03-11T11:21:00.514Z,5.57
2023-03-11T11:23:31.785Z,5.67
2023-03-11T11:26:00.682Z,5.20
2023-03-11T11:28:27.681Z,5.93
2023-03-11T11:30:57.181Z,5.50
2023-03-11T11:33:27.247Z,6.07
2023-03-11T11:35:57.759Z,6.60
2023-03-11T11:38:26.411Z,5.90
2023-03-11T11:40:55.101Z,5.70
2023-03-11T11:43:25.872Z,5.60
2023-03-11T11:45:56.960Z,6.30
2023-03-11T11:48:29.497Z,6.07
2023-03-11T11:51:00.036Z,5.20
2023-03-11T11:53:34.620Z,4.40
2023-03-11T11:56:02.240Z,5.17
2023-03-11T11:58:30.391Z,4.67
2023-03-11T12:01:07.573Z,4.60
2023-03-11T12:03:56.248Z,5.10
2023-03-11T12:06:31.373Z,3.57
2023-03-11T12:09:06.085Z,4.27
2023-03-11T12:11:41.525Z,4.63
2023-03-11T12:14:16.192Z,3.90
2023-03-11T12:16:50.658Z,3.30
2023-03-11T12:19:25.141Z,3.40
2023-03-11T12:22:15.511Z,3.27
2023-03-11T12:25:03.880Z,3.10
2023-03-11T12:27:34.859Z,3.70
2023-03-11T12:30:04.889Z,3.93
2023-03-11T12:32:36.578Z,3.10
2023-03-11T12:35:10.343Z,4.33
2023-03-11T12:37:38.407Z,2.70
2023-03-11T12:40:38.847Z,2.63
2023-03-11T12:43:22.218Z,3.20
2023-03-11T12:45:50.822Z,3.10
2023-03-11T12:48:35.513Z,3.10
2023-03-11T12:51:02.454Z,2.73
2023-03-11T12:53:45.264Z,2.90
2023-03-11T12:56:23.697Z,3.13
2023-03-11T12:59:24.463Z,2.53
2023-03-11T13:01:57.822Z,2.20
2023-03-11T13:04:39.532Z,2.53
2023-03-11T13:07:39.710Z,2.50
2023-03-11T13:10:18.153Z,2.57
2023-03-11T13:12:46.212Z,3.03
2023-03-11T13:15:33.157Z,1.90
2023-03-11T13:18:01.303Z,1.97
2023-03-11T13:20:51.428Z,2.60
2023-03-11T13:23:27.683Z,2.10
2023-03-11T13:26:28.706Z,2.50
2023-03-11T13:29:15.055Z,2.20
2023-03-11T13:31:50.926Z,2.10
2023-03-11T13:34:23.380Z,2.90
2023-03-11T13:37:07.495Z,2.63
2023-03-11T13:39:45.485Z,2.00
2023-03-11T13:42:26.401Z,2.30
2023-03-11T13:44:54.258Z,1.93
2023-03-11T13:47:22.455Z,1.87
2023-03-11T13:49:53.733Z,2.73
2023-03-11T13:52:26.533Z,2.20
2023-03-11T13:54:59.232Z,1.83
2023-03-11T13:57:29.545Z,2.30
2023-03-11T13:59:57.649Z,2.07
2023-03-11T14:02:26.672Z,2.40
2023-03-11T14:04:57.401Z,2.00
2023-03-11T14:07:27.971Z,2.10
2023-03-11T14:10:26.117Z,2.20
2023-03-11T14:13:05.278Z,2.37
2023-03-11T14:15:42.199Z,2.80
2023-03-11T14:18:42.604Z,2.03
2023-03-11T14:21:15.332Z,2.80
2023-03-11T14:23:44.921Z,2.10
2023-03-11T14:26:15.093Z,2.10
2023-03-11T14:28:45.395Z,1.60
2023-03-11T14:31:23.255Z,1.87
2023-03-11T14:33:55.591Z,2.07
2023-03-11T14:36:22.307Z,2.57
2023-03-11T14:38:48.959Z,1.93
2023-03-11T14:41:16.002Z,2.80
2023-03-11T14:43:48.203Z,1.60
2023-03-11T14:46:21.847Z,1.60
2023-03-11T14:48:48.652Z,2.03
2023-03-11T14:51:19.898Z,1.87
2023-03-11T14:53:52.526Z,2.07
2023-03-11T14:56:21.746Z,1.93
2023-03-11T14:59:07.412Z,1.97
2023-03-11T15:01:38.062Z,1.87
2023-03-11T15:04:08.226Z,1.90
2023-03-11T15:06:35.703Z,2.17
2023-03-11T15:09:06.346Z,2.23
2023-03-11T15:11:44.499Z,1.63
2023-03-11T15:14:20.135Z,2.03
2023-03-11T15:16:48.209Z,2.80
2023-03-11T15:19:24.009Z,2.40
2023-03-11T15:21:51.894Z,2.00
2023-03-11T15:24:20.973Z,1.47
2023-03-11T15:26:54.760Z,1.67
2023-03-11T15:29:22.985Z,1.30
2023-03-11T15:31:49.740Z,1.60
2023-03-11T15:34:25.595Z,2.37
2023-03-11T15:37:20.013Z,1.20
2023-03-11T15:39:48.831Z,1.60
2023-03-11T15:42:20.189Z,1.20
2023-03-11T15:45:01.288Z,1.10
2023-03-11T15:47:28.057Z,1.43
2023-03-11T15:49:54.754Z,1.73
2023-03-11T15:52:21.540Z,1.90
2023-03-11T15:54:55.438Z,1.73
2023-03-11T15:57:25.391Z,1.10
2023-03-11T15:59:54.866Z,1.47
2023-03-11T16:02:23.706Z,2.17
2023-03-11T16:04:50.588Z,1.20
2023-03-11T16:07:21.784Z,1.97
2023-03-11T16:09:56.048Z,2.03
2023-03-11T16:12:23.819Z,1.67
2023-03-11T16:14:50.766Z,2.27
2023-03-11T16:17:18.770Z,1.97
2023-03-11T16:19:47.386Z,1.77
2023-03-11T16:22:18.552Z,2.03
2023-03-11T16:24:45.852Z,2.10
2023-03-11T16:27:15.105Z,1.83
2023-03-11T16:29:41.874Z,2.33
2023-03-11T16:32:08.700Z,2.63
2023-03-11T16:34:36.815Z,2.40
2023-03-11T16:37:04.176Z,2.10
2023-03-11T16:39:30.848Z,1.93
2023-03-11T16:41:57.536Z,2.50
2023-03-11T16:44:24.247Z,1.60
2023-03-11T16:46:50.992Z,2.23
2023-03-11T16:49:17.680Z,1.60
2023-03-11T16:51:45.712Z,3.07
2023-03-11T16:54:14.641Z,2.20
2023-03-11T16:56:41.865Z,2.50
2023-03-11T16:59:08.989Z,2.60
2023-03-11T17:01:35.770Z,2.33
2023-03-11T17:04:02.490Z,3.00
2023-03-11T17:06:29.165Z,2.30
2023-03-11T17:08:57.518Z,3.90
2023-03-11T17:11:24.789Z,2.33
2023-03-11T17:13:51.557Z,2.33
2023-03-11T17:16:18.304Z,5.10
2023-03-11T17:18:44.991Z,3.40
2023-03-11T17:21:14.065Z,2.27
2023-03-11T17:23:41.245Z,2.20
2023-03-11T17:26:10.584Z,2.90
2023-03-11T17:28:37.996Z,1.73
2023-03-11T17:31:04.830Z,2.20
2023-03-11T17:33:31.560Z,1.60
2023-03-11T17:36:01.592Z,2.33
2023-03-11T17:38:28.301Z,1.57
2023-03-11T17:40:56.254Z,2.10
2023-03-11T17:43:26.066Z,2.00
2023-03-11T17:45:55.213Z,2.87
2023-03-11T17:48:22.026Z,2.87
2023-03-11T17:50:51.550Z,3.90
2023-03-11T17:53:18.246Z,3.60
2023-03-11T17:55:44.977Z,3.57
2023-03-11T17:58:11.689Z,3.00
2023-03-11T18:00:39.767Z,4.20
2023-03-11T18:03:06.438Z,3.60
2023-03-11T18:05:33.182Z,4.37
2023-03-11T18:07:59.830Z,5.73
2023-03-11T18:10:26.516Z,8.30
2023-03-11T18:12:53.151Z,5.33
2023-03-11T18:15:20.070Z,4.80
2023-03-11T18:17:48.636Z,2.53
2023-03-11T18:20:15.644Z,2.80
2023-03-11T18:22:46.135Z,3.00
2023-03-11T18:25:13.282Z,3.50
2023-03-11T18:27:40.935Z,2.97
2023-03-11T18:30:09.080Z,2.30
2023-03-11T18:32:35.806Z,1.80
2023-03-11T18:35:04.372Z,2.10
2023-03-11T18:37:32.548Z,2.00
2023-03-11T18:39:59.186Z,2.40
2023-03-11T18:42:25.844Z,2.50
2023-03-11T18:44:52.532Z,2.20
2023-03-11T18:47:19.223Z,2.20
2023-03-11T18:49:45.858Z,2.73
2023-03-11T18:52:13.887Z,2.60
2023-03-11T18:54:40.791Z,2.53
2023-03-11T18:57:07.555Z,3.40
2023-03-11T18:59:34.268Z,3.40
2023-03-11T19:02:01.060Z,2.40
2023-03-11T19:04:27.723Z,2.27
2023-03-11T19:06:54.519Z,2.40
2023-03-11T19:09:22.496Z,1.53
2023-03-11T19:11:49.796Z,1.80
2023-03-11T19:14:16.432Z,2.00
2023-03-11T19:16:43.171Z,1.80
2023-03-11T19:19:11.969Z,2.10
2023-03-11T19:21:38.758Z,3.20
2023-03-11T19:24:05.752Z,2.50
2023-03-11T19:26:44.184Z,3.37
2023-03-11T19:29:12.074Z,3.27
2023-03-11T19:31:38.718Z,3.30
2023-03-11T19:34:05.628Z,3.13
2023-03-11T19:36:32.322Z,2.43
2023-03-11T19:38:58.970Z,3.17
2023-03-11T19:41:25.618Z,4.00
2023-03-11T19:43:53.643Z,3.97
2023-03-11T19:46:21.584Z,3.47
2023-03-11T19:48:48.302Z,2.60
2023-03-11T19:51:15.112Z,1.97
2023-03-11T19:53:41.833Z,1.67
2023-03-11T19:56:09.577Z,2.60
2023-03-11T19:58:36.719Z,2.37
2023-03-11T20:01:05.193Z,2.27
2023-03-11T20:03:31.893Z,2.23
2023-03-11T20:06:04.711Z,2.00
2023-03-11T20:08:31.432Z,2.30
2023-03-11T20:11:00.928Z,2.07
2023-03-11T20:13:27.706Z,1.07
2023-03-11T20:15:54.457Z,1.63
2023-03-11T20:18:22.533Z,1.73
2023-03-11T20:20:49.205Z,1.77
2023-03-11T20:23:15.863Z,1.50
2023-03-11T20:25:42.589Z,1.80
2023-03-11T20:28:09.691Z,1.40
2023-03-11T20:30:37.805Z,1.67
2023-03-11T20:33:04.723Z,1.60
2023-03-11T20:35:33.084Z,1.87
2023-03-11T20:37:59.975Z,2.10
2023-03-11T20:40:26.776Z,3.43
2023-03-11T20:42:53.487Z,3.73
2023-03-11T20:45:20.119Z,1.93
2023-03-11T20:47:47.148Z,1.53
2023-03-11T20:50:13.917Z,1.50
2023-03-11T20:52:41.952Z,1.60
2023-03-11T20:55:10.057Z,1.90
2023-03-11T20:57:37.176Z,1.33
2023-03-11T21:00:05.262Z,1.70
2023-03-11T21:02:33.965Z,1.50
2023-03-11T21:05:00.785Z,1.50
2023-03-11T21:07:27.516Z,1.70
2023-03-11T21:09:55.670Z,1.50
2023-03-11T21:12:22.389Z,2.03
2023-03-11T21:14:49.026Z,1.77
2023-03-11T21:17:15.831Z,1.60
2023-03-11T21:19:42.842Z,1.00
2023-03-11T21:22:10.024Z,1.40
2023-03-11T21:24:36.800Z,1.33
2023-03-11T21:27:05.035Z,2.90
2023-03-11T21:29:31.834Z,1.27
2023-03-11T21:31:58.725Z,2.67
2023-03-11T21:34:25.556Z,1.60
2023-03-11T21:36:52.296Z,2.40
2023-03-11T21:39:18.932Z,1.20
2023-03-11T21:41:45.864Z,1.50
2023-03-11T21:44:13.952Z,1.53
2023-03-11T21:46:40.773Z,1.60
2023-03-11T21:49:07.425Z,1.33
2023-03-11T21:51:34.255Z,1.80
2023-03-11T21:54:00.996Z,1.77
2023-03-11T21:56:27.868Z,1.60
2023-03-11T21:58:54.621Z,1.83
2023-03-11T22:01:22.851Z,1.37
2023-03-11T22:03:50.035Z,2.23
2023-03-11T22:06:16.818Z,2.50
2023-03-11T22:08:43.464Z,1.77
2023-03-11T22:11:13.090Z,1.27
2023-03-11T22:13:39.995Z,1.97
2023-03-11T22:16:07.685Z,1.97
2023-03-11T22:18:35.986Z,1.87
2023-03-11T22:21:02.869Z,1.50
2023-03-11T22:23:29.664Z,1.13
2023-03-11T22:25:56.341Z,1.90
2023-03-11T22:28:23.874Z,1.43
2023-03-11T22:30:50.552Z,1.70
2023-03-11T22:33:17.233Z,1.63
2023-03-11T22:35:50.929Z,1.60
2023-03-11T22:38:17.679Z,1.20
2023-03-11T22:40:44.293Z,1.60
2023-03-11T22:43:11.004Z,1.60
2023-03-11T22:45:37.707Z,1.53
2023-03-11T22:48:04.949Z,1.77
2023-03-11T22:50:31.613Z,1.77
2023-03-11T22:52:59.682Z,2.20
2023-03-11T22:55:26.598Z,1.03
2023-03-11T22:57:53.260Z,1.40
2023-03-11T23:00:21.916Z,1.40
2023-03-11T23:02:52.896Z,1.77
2023-03-11T23:05:19.946Z,1.53
2023-03-11T23:07:46.886Z,2.07
2023-03-11T23:10:15.756Z,2.10
2023-03-11T23:12:42.642Z,1.40
2023-03-11T23:15:12.792Z,2.10
2023-03-11T23:17:39.951Z,1.90
2023-03-11T23:20:09.874Z,1.97
2023-03-11T23:22:36.705Z,1.60
2023-03-11T23:25:04.268Z,1.40
2023-03-11T23:27:32.667Z,1.60
2023-03-11T23:29:59.387Z,1.67
2023-03-11T23:32:26.154Z,1.93
2023-03-11T23:34:52.849Z,2.23
2023-03-11T23:37:19.519Z,2.00
2023-03-11T23:39:46.222Z,1.60
2023-03-11T23:42:24.913Z,1.53
2023-03-11T23:44:54.021Z,1.37
2023-03-11T23:47:20.789Z,1.60
2023-03-11T23:49:47.489Z,1.63
2023-03-11T23:52:14.305Z,1.63
2023-03-11T23:54:40.999Z,1.97
2023-03-11T23:57:07.770Z,1.80
2023-03-11T23:59:34.476Z,1.17
